sensor_id;sensor_type;location;lat;lon;timestamp;pressure;altitude;pressure_sealevel;temperature;humidity
12358;BME280;6243;51.244;6.774;2024-02-21T00:02:17;115150.97;;;-141.28;43.20
12358;BME280;6243;51.244;6.774;2024-02-21T00:04:43;115150.97;;;-141.28;42.95
12358;BME280;6243;51.244;6.774;2024-02-21T00:07:09;115150.97;;;-141.28;42.53
12358;BME280;6243;51.244;6.774;2024-02-21T00:09:34;115150.97;;;-141.28;43.16
12358;BME280;6243;51.244;6.774;2024-02-21T00:12:00;115150.97;;;-141.28;42.81
12358;BME280;6243;51.244;6.774;2024-02-21T00:14:26;115150.97;;;-141.28;43.14
12358;BME280;6243;51.244;6.774;2024-02-21T00:16:53;115150.97;;;-141.28;42.57
12358;BME280;6243;51.244;6.774;2024-02-21T00:19:19;115150.97;;;-141.28;42.59
12358;BME280;6243;51.244;6.774;2024-02-21T00:21:44;115150.97;;;-141.28;43.20
12358;BME280;6243;51.244;6.774;2024-02-21T00:24:10;115150.97;;;-141.28;42.86
12358;BME280;6243;51.244;6.774;2024-02-21T00:26:35;115150.97;;;-141.28;43.13
12358;BME280;6243;51.244;6.774;2024-02-21T00:29:01;115150.97;;;-141.28;42.73
12358;BME280;6243;51.244;6.774;2024-02-21T00:31:26;115150.97;;;-141.28;42.33
12358;BME280;6243;51.244;6.774;2024-02-21T00:33:54;115150.97;;;-141.28;42.43
12358;BME280;6243;51.244;6.774;2024-02-21T00:36:20;115150.97;;;-141.28;42.58
12358;BME280;6243;51.244;6.774;2024-02-21T00:38:45;115150.97;;;-141.28;42.78
12358;BME280;6243;51.244;6.774;2024-02-21T00:41:11;115150.97;;;-141.28;42.53
12358;BME280;6243;51.244;6.774;2024-02-21T00:43:37;115150.97;;;-141.28;42.80
12358;BME280;6243;51.244;6.774;2024-02-21T00:46:02;115150.97;;;-141.28;42.69
12358;BME280;6243;51.244;6.774;2024-02-21T00:48:30;115150.97;;;-141.28;43.15
12358;BME280;6243;51.244;6.774;2024-02-21T00:50:58;115150.97;;;-141.28;43.37
12358;BME280;6243;51.244;6.774;2024-02-21T00:53:23;115150.97;;;-141.28;43.38
12358;BME280;6243;51.244;6.774;2024-02-21T00:55:49;115150.97;;;-141.28;42.96
12358;BME280;6243;51.244;6.774;2024-02-21T00:58:15;115150.97;;;-141.28;42.70
12358;BME280;6243;51.244;6.774;2024-02-21T01:00:40;115150.97;;;-141.28;42.91
12358;BME280;6243;51.244;6.774;2024-02-21T01:03:06;115150.97;;;-141.28;42.59
12358;BME280;6243;51.244;6.774;2024-02-21T01:05:31;115150.97;;;-141.28;43.13
12358;BME280;6243;51.244;6.774;2024-02-21T01:07:58;115150.97;;;-141.28;42.82
12358;BME280;6243;51.244;6.774;2024-02-21T01:10:24;115150.97;;;-141.28;43.43
12358;BME280;6243;51.244;6.774;2024-02-21T01:12:50;115150.97;;;-141.28;43.57
12358;BME280;6243;51.244;6.774;2024-02-21T01:15:15;115150.97;;;-141.28;43.73
12358;BME280;6243;51.244;6.774;2024-02-21T01:17:41;115150.97;;;-141.28;43.31
12358;BME280;6243;51.244;6.774;2024-02-21T01:20:07;115150.97;;;-141.28;44.00
12358;BME280;6243;51.244;6.774;2024-02-21T01:22:33;115150.97;;;-141.28;44.28
12358;BME280;6243;51.244;6.774;2024-02-21T01:25:00;115150.97;;;-141.28;43.78
12358;BME280;6243;51.244;6.774;2024-02-21T01:27:26;115150.97;;;-141.28;44.18
12358;BME280;6243;51.244;6.774;2024-02-21T01:29:51;115150.97;;;-141.28;43.85
12358;BME280;6243;51.244;6.774;2024-02-21T01:32:17;115150.97;;;-141.28;43.97
12358;BME280;6243;51.244;6.774;2024-02-21T01:34:43;115150.97;;;-141.28;44.70
12358;BME280;6243;51.244;6.774;2024-02-21T01:37:08;115150.97;;;-141.28;44.60
12358;BME280;6243;51.244;6.774;2024-02-21T01:39:34;115150.97;;;-141.28;44.07
12358;BME280;6243;51.244;6.774;2024-02-21T01:42:01;115150.97;;;-141.28;44.80
12358;BME280;6243;51.244;6.774;2024-02-21T01:44:26;115150.97;;;-141.28;44.72
12358;BME280;6243;51.244;6.774;2024-02-21T01:46:52;115150.97;;;-141.28;44.68
12358;BME280;6243;51.244;6.774;2024-02-21T01:49:18;115150.97;;;-141.28;44.49
12358;BME280;6243;51.244;6.774;2024-02-21T01:51:44;115150.97;;;-141.28;44.41
12358;BME280;6243;51.244;6.774;2024-02-21T01:54:11;115150.97;;;-141.28;44.00
12358;BME280;6243;51.244;6.774;2024-02-21T01:56:38;115150.97;;;-141.28;43.76
12358;BME280;6243;51.244;6.774;2024-02-21T01:59:06;115150.97;;;-141.28;44.65
12358;BME280;6243;51.244;6.774;2024-02-21T02:01:32;115150.97;;;-141.28;44.23
12358;BME280;6243;51.244;6.774;2024-02-21T02:03:59;115150.97;;;-141.28;44.40
12358;BME280;6243;51.244;6.774;2024-02-21T02:06:25;115150.97;;;-141.28;44.49
12358;BME280;6243;51.244;6.774;2024-02-21T02:08:51;115150.97;;;-141.28;44.04
12358;BME280;6243;51.244;6.774;2024-02-21T02:11:17;115150.97;;;-141.28;44.31
12358;BME280;6243;51.244;6.774;2024-02-21T02:13:42;115150.97;;;-141.28;44.58
12358;BME280;6243;51.244;6.774;2024-02-21T02:16:10;115150.97;;;-141.28;44.43
12358;BME280;6243;51.244;6.774;2024-02-21T02:18:35;115150.97;;;-141.28;43.99
12358;BME280;6243;51.244;6.774;2024-02-21T02:21:01;115150.97;;;-141.28;44.24
12358;BME280;6243;51.244;6.774;2024-02-21T02:23:29;115150.97;;;-141.28;44.32
12358;BME280;6243;51.244;6.774;2024-02-21T02:25:55;115150.97;;;-141.28;44.41
12358;BME280;6243;51.244;6.774;2024-02-21T02:28:21;115150.97;;;-141.28;43.75
12358;BME280;6243;51.244;6.774;2024-02-21T02:30:47;115150.97;;;-141.28;43.91
12358;BME280;6243;51.244;6.774;2024-02-21T02:33:14;115150.97;;;-141.28;43.95
12358;BME280;6243;51.244;6.774;2024-02-21T02:35:40;115150.97;;;-141.28;43.70
12358;BME280;6243;51.244;6.774;2024-02-21T02:38:05;115150.97;;;-141.28;44.00
12358;BME280;6243;51.244;6.774;2024-02-21T02:40:33;115150.97;;;-141.28;43.76
12358;BME280;6243;51.244;6.774;2024-02-21T02:42:59;115150.97;;;-141.28;43.77
12358;BME280;6243;51.244;6.774;2024-02-21T02:45:25;115150.97;;;-141.28;43.65
12358;BME280;6243;51.244;6.774;2024-02-21T02:47:51;115150.97;;;-141.28;44.35
12358;BME280;6243;51.244;6.774;2024-02-21T02:50:16;115150.97;;;-141.28;43.80
12358;BME280;6243;51.244;6.774;2024-02-21T02:52:42;115150.97;;;-141.28;43.97
12358;BME280;6243;51.244;6.774;2024-02-21T02:55:08;115150.97;;;-141.28;43.76
12358;BME280;6243;51.244;6.774;2024-02-21T02:57:34;115150.97;;;-141.28;43.77
12358;BME280;6243;51.244;6.774;2024-02-21T03:00:00;115150.97;;;-141.28;43.62
12358;BME280;6243;51.244;6.774;2024-02-21T03:02:26;115150.97;;;-141.28;44.23
12358;BME280;6243;51.244;6.774;2024-02-21T03:04:51;115150.97;;;-141.28;44.00
12358;BME280;6243;51.244;6.774;2024-02-21T03:07:17;115150.97;;;-141.28;44.26
12358;BME280;6243;51.244;6.774;2024-02-21T03:09:42;115150.97;;;-141.28;44.58
12358;BME280;6243;51.244;6.774;2024-02-21T03:12:08;115150.97;;;-141.28;44.40
12358;BME280;6243;51.244;6.774;2024-02-21T03:14:35;115150.97;;;-141.28;44.66
12358;BME280;6243;51.244;6.774;2024-02-21T03:17:01;115150.97;;;-141.28;44.62
12358;BME280;6243;51.244;6.774;2024-02-21T03:19:27;115150.97;;;-141.28;44.10
12358;BME280;6243;51.244;6.774;2024-02-21T03:21:53;115150.97;;;-141.28;44.44
12358;BME280;6243;51.244;6.774;2024-02-21T03:24:19;115150.97;;;-141.28;44.47
12358;BME280;6243;51.244;6.774;2024-02-21T03:26:45;115150.97;;;-141.28;44.42
12358;BME280;6243;51.244;6.774;2024-02-21T03:29:11;115150.97;;;-141.28;44.10
12358;BME280;6243;51.244;6.774;2024-02-21T03:31:38;115150.97;;;-141.28;44.17
12358;BME280;6243;51.244;6.774;2024-02-21T03:34:03;115150.97;;;-141.28;44.05
12358;BME280;6243;51.244;6.774;2024-02-21T03:36:29;115150.97;;;-141.28;44.02
12358;BME280;6243;51.244;6.774;2024-02-21T03:38:54;115150.97;;;-141.28;43.94
12358;BME280;6243;51.244;6.774;2024-02-21T03:41:21;115150.97;;;-141.28;44.32
12358;BME280;6243;51.244;6.774;2024-02-21T03:43:47;115150.97;;;-141.28;44.27
12358;BME280;6243;51.244;6.774;2024-02-21T03:46:12;115150.97;;;-141.28;44.23
12358;BME280;6243;51.244;6.774;2024-02-21T03:48:39;115150.97;;;-141.28;44.79
12358;BME280;6243;51.244;6.774;2024-02-21T03:51:05;115150.97;;;-141.28;44.00
12358;BME280;6243;51.244;6.774;2024-02-21T03:53:31;115150.97;;;-141.28;44.63
12358;BME280;6243;51.244;6.774;2024-02-21T03:55:56;115150.97;;;-141.28;43.88
12358;BME280;6243;51.244;6.774;2024-02-21T03:58:22;115150.97;;;-141.28;43.82
12358;BME280;6243;51.244;6.774;2024-02-21T04:00:48;115150.97;;;-141.28;44.47
12358;BME280;6243;51.244;6.774;2024-02-21T04:03:13;115150.97;;;-141.28;44.06
12358;BME280;6243;51.244;6.774;2024-02-21T04:05:40;115150.97;;;-141.28;44.08
12358;BME280;6243;51.244;6.774;2024-02-21T04:08:06;115150.97;;;-141.28;44.30
12358;BME280;6243;51.244;6.774;2024-02-21T04:10:32;115150.97;;;-141.28;44.08
12358;BME280;6243;51.244;6.774;2024-02-21T04:12:57;115150.97;;;-141.28;43.79
12358;BME280;6243;51.244;6.774;2024-02-21T04:15:23;115150.97;;;-141.28;43.65
12358;BME280;6243;51.244;6.774;2024-02-21T04:17:49;115150.97;;;-141.28;43.95
12358;BME280;6243;51.244;6.774;2024-02-21T04:20:15;115150.97;;;-141.28;43.45
12358;BME280;6243;51.244;6.774;2024-02-21T04:22:42;115150.97;;;-141.28;43.66
12358;BME280;6243;51.244;6.774;2024-02-21T04:25:08;115150.97;;;-141.28;43.72
12358;BME280;6243;51.244;6.774;2024-02-21T04:27:34;115150.97;;;-141.28;44.09
12358;BME280;6243;51.244;6.774;2024-02-21T04:30:00;115150.97;;;-141.28;43.77
12358;BME280;6243;51.244;6.774;2024-02-21T04:32:26;115150.97;;;-141.28;44.03
12358;BME280;6243;51.244;6.774;2024-02-21T04:34:52;115150.97;;;-141.28;44.32
12358;BME280;6243;51.244;6.774;2024-02-21T04:37:18;115150.97;;;-141.28;43.92
12358;BME280;6243;51.244;6.774;2024-02-21T04:39:45;115150.97;;;-141.28;43.89
12358;BME280;6243;51.244;6.774;2024-02-21T04:42:11;115150.97;;;-141.28;44.00
12358;BME280;6243;51.244;6.774;2024-02-21T04:44:37;115150.97;;;-141.28;44.59
12358;BME280;6243;51.244;6.774;2024-02-21T04:47:03;115150.97;;;-141.28;44.83
12358;BME280;6243;51.244;6.774;2024-02-21T04:49:28;115150.97;;;-141.28;44.32
12358;BME280;6243;51.244;6.774;2024-02-21T04:51:54;115150.97;;;-141.28;44.12
12358;BME280;6243;51.244;6.774;2024-02-21T04:54:19;115150.97;;;-141.28;43.79
12358;BME280;6243;51.244;6.774;2024-02-21T04:56:47;115150.97;;;-141.28;44.22
12358;BME280;6243;51.244;6.774;2024-02-21T04:59:12;115150.97;;;-141.28;44.06
12358;BME280;6243;51.244;6.774;2024-02-21T05:01:38;115150.97;;;-141.28;44.20
12358;BME280;6243;51.244;6.774;2024-02-21T05:04:04;115150.97;;;-141.28;44.04
12358;BME280;6243;51.244;6.774;2024-02-21T05:06:29;115150.97;;;-141.28;43.67
12358;BME280;6243;51.244;6.774;2024-02-21T05:08:55;115150.97;;;-141.28;43.69
12358;BME280;6243;51.244;6.774;2024-02-21T05:11:21;115150.97;;;-141.28;43.29
12358;BME280;6243;51.244;6.774;2024-02-21T05:13:47;115150.97;;;-141.28;43.57
12358;BME280;6243;51.244;6.774;2024-02-21T05:16:13;115150.97;;;-141.28;44.09
12358;BME280;6243;51.244;6.774;2024-02-21T05:18:40;115150.97;;;-141.28;43.87
12358;BME280;6243;51.244;6.774;2024-02-21T05:21:05;115150.97;;;-141.28;44.11
12358;BME280;6243;51.244;6.774;2024-02-21T05:23:31;115150.97;;;-141.28;43.97
12358;BME280;6243;51.244;6.774;2024-02-21T05:25:57;115150.97;;;-141.28;44.40
12358;BME280;6243;51.244;6.774;2024-02-21T05:28:22;115150.97;;;-141.28;43.79
12358;BME280;6243;51.244;6.774;2024-02-21T05:30:50;115150.97;;;-141.28;43.91
12358;BME280;6243;51.244;6.774;2024-02-21T05:33:15;115150.97;;;-141.28;43.76
12358;BME280;6243;51.244;6.774;2024-02-21T05:35:41;115150.97;;;-141.28;43.90
12358;BME280;6243;51.244;6.774;2024-02-21T05:38:06;115150.97;;;-141.28;44.23
12358;BME280;6243;51.244;6.774;2024-02-21T05:40:32;115150.97;;;-141.28;44.03
12358;BME280;6243;51.244;6.774;2024-02-21T05:42:58;115150.97;;;-141.28;44.18
12358;BME280;6243;51.244;6.774;2024-02-21T05:45:23;115150.97;;;-141.28;44.20
12358;BME280;6243;51.244;6.774;2024-02-21T05:47:50;115150.97;;;-141.28;44.12
12358;BME280;6243;51.244;6.774;2024-02-21T05:50:16;115150.97;;;-141.28;44.19
12358;BME280;6243;51.244;6.774;2024-02-21T05:52:41;115150.97;;;-141.28;44.11
12358;BME280;6243;51.244;6.774;2024-02-21T05:55:07;115150.97;;;-141.28;44.00
12358;BME280;6243;51.244;6.774;2024-02-21T05:57:33;115150.97;;;-141.28;43.94
12358;BME280;6243;51.244;6.774;2024-02-21T05:59:58;115150.97;;;-141.28;43.87
12358;BME280;6243;51.244;6.774;2024-02-21T06:02:24;115150.97;;;-141.28;44.01
12358;BME280;6243;51.244;6.774;2024-02-21T06:04:51;115150.97;;;-141.28;44.87
12358;BME280;6243;51.244;6.774;2024-02-21T06:07:16;115150.97;;;-141.28;44.24
12358;BME280;6243;51.244;6.774;2024-02-21T06:09:42;115150.97;;;-141.28;44.43
12358;BME280;6243;51.244;6.774;2024-02-21T06:12:08;115150.97;;;-141.28;44.04
12358;BME280;6243;51.244;6.774;2024-02-21T06:14:33;115150.97;;;-141.28;43.83
12358;BME280;6243;51.244;6.774;2024-02-21T06:16:59;115150.97;;;-141.28;43.40
12358;BME280;6243;51.244;6.774;2024-02-21T06:19:24;115150.97;;;-141.28;43.31
12358;BME280;6243;51.244;6.774;2024-02-21T06:21:51;115150.97;;;-141.28;43.43
12358;BME280;6243;51.244;6.774;2024-02-21T06:24:16;115150.97;;;-141.28;43.73
12358;BME280;6243;51.244;6.774;2024-02-21T06:26:42;115150.97;;;-141.28;44.15
12358;BME280;6243;51.244;6.774;2024-02-21T06:29:07;115150.97;;;-141.28;43.81
12358;BME280;6243;51.244;6.774;2024-02-21T06:31:35;115150.97;;;-141.28;43.38
12358;BME280;6243;51.244;6.774;2024-02-21T06:34:01;115150.97;;;-141.28;43.75
12358;BME280;6243;51.244;6.774;2024-02-21T06:36:26;115150.97;;;-141.28;43.21
12358;BME280;6243;51.244;6.774;2024-02-21T06:38:53;115150.97;;;-141.28;43.47
12358;BME280;6243;51.244;6.774;2024-02-21T06:41:19;115150.97;;;-141.28;43.66
12358;BME280;6243;51.244;6.774;2024-02-21T06:43:44;115150.97;;;-141.28;43.56
12358;BME280;6243;51.244;6.774;2024-02-21T06:46:10;115150.97;;;-141.28;43.69
12358;BME280;6243;51.244;6.774;2024-02-21T06:48:35;115150.97;;;-141.28;44.09
12358;BME280;6243;51.244;6.774;2024-02-21T06:51:01;115150.97;;;-141.28;43.74
12358;BME280;6243;51.244;6.774;2024-02-21T06:53:26;115150.97;;;-141.28;43.61
12358;BME280;6243;51.244;6.774;2024-02-21T06:55:53;115150.97;;;-141.28;43.60
12358;BME280;6243;51.244;6.774;2024-02-21T06:58:19;115150.97;;;-141.28;43.39
12358;BME280;6243;51.244;6.774;2024-02-21T07:00:44;115150.97;;;-141.28;43.69
12358;BME280;6243;51.244;6.774;2024-02-21T07:03:10;115150.97;;;-141.28;43.51
12358;BME280;6243;51.244;6.774;2024-02-21T07:05:35;115150.97;;;-141.28;43.45
12358;BME280;6243;51.244;6.774;2024-02-21T07:08:01;115150.97;;;-141.28;43.34
12358;BME280;6243;51.244;6.774;2024-02-21T07:10:27;115150.97;;;-141.28;43.21
12358;BME280;6243;51.244;6.774;2024-02-21T07:12:54;115150.97;;;-141.28;43.41
12358;BME280;6243;51.244;6.774;2024-02-21T07:15:20;115150.97;;;-141.28;43.24
12358;BME280;6243;51.244;6.774;2024-02-21T07:17:45;115150.97;;;-141.28;42.93
12358;BME280;6243;51.244;6.774;2024-02-21T07:20:11;115150.97;;;-141.28;43.21
12358;BME280;6243;51.244;6.774;2024-02-21T07:22:36;115150.97;;;-141.28;43.30
12358;BME280;6243;51.244;6.774;2024-02-21T07:25:02;115150.97;;;-141.28;43.22
12358;BME280;6243;51.244;6.774;2024-02-21T07:27:28;115150.97;;;-141.28;42.84
12358;BME280;6243;51.244;6.774;2024-02-21T07:29:55;115150.97;;;-141.28;43.41
12358;BME280;6243;51.244;6.774;2024-02-21T07:32:20;115150.97;;;-141.28;43.47
12358;BME280;6243;51.244;6.774;2024-02-21T07:34:46;115150.97;;;-141.28;44.23
12358;BME280;6243;51.244;6.774;2024-02-21T07:37:11;115150.97;;;-141.28;43.69
12358;BME280;6243;51.244;6.774;2024-02-21T07:39:37;115150.97;;;-141.28;43.36
12358;BME280;6243;51.244;6.774;2024-02-21T07:42:03;115150.97;;;-141.28;43.55
12358;BME280;6243;51.244;6.774;2024-02-21T07:44:28;115150.97;;;-141.28;43.59
12358;BME280;6243;51.244;6.774;2024-02-21T07:46:55;115150.97;;;-141.28;43.95
12358;BME280;6243;51.244;6.774;2024-02-21T07:49:21;115150.97;;;-141.28;44.63
12358;BME280;6243;51.244;6.774;2024-02-21T07:51:46;115150.97;;;-141.28;45.03
12358;BME280;6243;51.244;6.774;2024-02-21T07:54:12;115150.97;;;-141.28;44.72
12358;BME280;6243;51.244;6.774;2024-02-21T07:56:37;115150.97;;;-141.28;45.13
12358;BME280;6243;51.244;6.774;2024-02-21T07:59:03;115150.97;;;-141.28;45.29
12358;BME280;6243;51.244;6.774;2024-02-21T08:01:28;115150.97;;;-141.28;45.38
12358;BME280;6243;51.244;6.774;2024-02-21T08:03:55;115150.97;;;-141.28;44.85
12358;BME280;6243;51.244;6.774;2024-02-21T08:06:21;115150.97;;;-141.28;44.36
12358;BME280;6243;51.244;6.774;2024-02-21T08:08:46;115150.97;;;-141.28;45.03
12358;BME280;6243;51.244;6.774;2024-02-21T08:11:12;115150.97;;;-141.28;44.45
12358;BME280;6243;51.244;6.774;2024-02-21T08:13:37;115150.97;;;-141.28;43.90
12358;BME280;6243;51.244;6.774;2024-02-21T08:16:03;115150.97;;;-141.28;44.67
12358;BME280;6243;51.244;6.774;2024-02-21T08:18:29;115150.97;;;-141.28;44.00
12358;BME280;6243;51.244;6.774;2024-02-21T08:20:56;115150.97;;;-141.28;43.57
12358;BME280;6243;51.244;6.774;2024-02-21T08:23:23;115150.97;;;-141.28;43.20
12358;BME280;6243;51.244;6.774;2024-02-21T08:25:49;115150.97;;;-141.28;43.46
12358;BME280;6243;51.244;6.774;2024-02-21T08:28:14;115150.97;;;-141.28;43.32
12358;BME280;6243;51.244;6.774;2024-02-21T08:30:40;115150.97;;;-141.28;43.52
12358;BME280;6243;51.244;6.774;2024-02-21T08:33:05;115150.97;;;-141.28;43.73
12358;BME280;6243;51.244;6.774;2024-02-21T08:35:31;115150.97;;;-141.28;44.40
12358;BME280;6243;51.244;6.774;2024-02-21T08:37:58;115150.97;;;-141.28;43.10
12358;BME280;6243;51.244;6.774;2024-02-21T08:40:23;115150.97;;;-141.28;43.35
12358;BME280;6243;51.244;6.774;2024-02-21T08:42:49;115150.97;;;-141.28;43.23
12358;BME280;6243;51.244;6.774;2024-02-21T08:45:14;115150.97;;;-141.28;43.72
12358;BME280;6243;51.244;6.774;2024-02-21T08:47:40;115150.97;;;-141.28;42.53
12358;BME280;6243;51.244;6.774;2024-02-21T08:50:06;115150.97;;;-141.28;41.98
12358;BME280;6243;51.244;6.774;2024-02-21T08:52:32;115150.97;;;-141.28;42.83
12358;BME280;6243;51.244;6.774;2024-02-21T08:54:59;115150.97;;;-141.28;42.83
12358;BME280;6243;51.244;6.774;2024-02-21T08:57:24;115150.97;;;-141.28;42.83
12358;BME280;6243;51.244;6.774;2024-02-21T08:59:50;115150.97;;;-141.28;43.85
12358;BME280;6243;51.244;6.774;2024-02-21T09:02:15;115150.97;;;-141.28;43.18
12358;BME280;6243;51.244;6.774;2024-02-21T09:04:41;115150.97;;;-141.28;43.44
12358;BME280;6243;51.244;6.774;2024-02-21T09:07:07;115150.97;;;-141.28;43.54
12358;BME280;6243;51.244;6.774;2024-02-21T09:09:32;115150.97;;;-141.28;42.63
12358;BME280;6243;51.244;6.774;2024-02-21T09:11:59;115150.97;;;-141.28;43.09
12358;BME280;6243;51.244;6.774;2024-02-21T09:14:25;115150.97;;;-141.28;42.74
12358;BME280;6243;51.244;6.774;2024-02-21T09:16:50;115150.97;;;-141.28;41.73
12358;BME280;6243;51.244;6.774;2024-02-21T09:19:16;115150.97;;;-141.28;41.87
12358;BME280;6243;51.244;6.774;2024-02-21T09:21:41;115150.97;;;-141.28;42.05
12358;BME280;6243;51.244;6.774;2024-02-21T09:24:07;115150.97;;;-141.28;41.85
12358;BME280;6243;51.244;6.774;2024-02-21T09:26:32;115150.97;;;-141.28;41.83
12358;BME280;6243;51.244;6.774;2024-02-21T09:28:59;115150.97;;;-141.28;42.27
12358;BME280;6243;51.244;6.774;2024-02-21T09:31:25;115150.97;;;-141.28;41.95
12358;BME280;6243;51.244;6.774;2024-02-21T09:33:50;115150.97;;;-141.28;42.25
12358;BME280;6243;51.244;6.774;2024-02-21T09:36:16;115150.97;;;-141.28;42.33
12358;BME280;6243;51.244;6.774;2024-02-21T09:38:41;115150.97;;;-141.28;42.25
12358;BME280;6243;51.244;6.774;2024-02-21T09:41:14;115150.97;;;-141.28;41.67
12358;BME280;6243;51.244;6.774;2024-02-21T09:43:41;115150.97;;;-141.28;41.62
12358;BME280;6243;51.244;6.774;2024-02-21T09:46:13;115150.97;;;-141.28;41.95
12358;BME280;6243;51.244;6.774;2024-02-21T09:48:51;115150.97;;;-141.28;41.63
12358;BME280;6243;51.244;6.774;2024-02-21T09:51:20;115150.97;;;-141.28;42.00
12358;BME280;6243;51.244;6.774;2024-02-21T09:53:47;115150.97;;;-141.28;41.62
12358;BME280;6243;51.244;6.774;2024-02-21T09:56:14;115150.97;;;-141.28;41.47
12358;BME280;6243;51.244;6.774;2024-02-21T09:58:39;115150.97;;;-141.28;41.54
12358;BME280;6243;51.244;6.774;2024-02-21T10:01:06;115150.97;;;-141.28;41.08
12358;BME280;6243;51.244;6.774;2024-02-21T10:03:32;115150.97;;;-141.28;41.42
12358;BME280;6243;51.244;6.774;2024-02-21T10:05:58;115150.97;;;-141.28;41.53
12358;BME280;6243;51.244;6.774;2024-02-21T10:08:24;115150.97;;;-141.28;41.61
12358;BME280;6243;51.244;6.774;2024-02-21T10:10:49;115150.97;;;-141.28;41.52
12358;BME280;6243;51.244;6.774;2024-02-21T10:13:32;115150.97;;;-141.28;41.80
12358;BME280;6243;51.244;6.774;2024-02-21T10:16:04;115150.97;;;-141.28;42.00
12358;BME280;6243;51.244;6.774;2024-02-21T10:18:32;115150.97;;;-141.28;41.47
12358;BME280;6243;51.244;6.774;2024-02-21T10:21:02;115150.97;;;-141.28;41.21
12358;BME280;6243;51.244;6.774;2024-02-21T10:23:28;115150.97;;;-141.28;41.04
12358;BME280;6243;51.244;6.774;2024-02-21T10:25:53;115150.97;;;-141.28;41.35
12358;BME280;6243;51.244;6.774;2024-02-21T10:28:19;115150.97;;;-141.28;41.32
12358;BME280;6243;51.244;6.774;2024-02-21T10:30:50;115150.97;;;-141.28;40.81
12358;BME280;6243;51.244;6.774;2024-02-21T10:33:15;115150.97;;;-141.28;40.75
12358;BME280;6243;51.244;6.774;2024-02-21T10:35:42;115150.97;;;-141.28;40.99
12358;BME280;6243;51.244;6.774;2024-02-21T10:38:08;115150.97;;;-141.28;41.39
12358;BME280;6243;51.244;6.774;2024-02-21T10:40:33;115150.97;;;-141.28;41.37
12358;BME280;6243;51.244;6.774;2024-02-21T10:43:00;115150.97;;;-141.28;41.41
12358;BME280;6243;51.244;6.774;2024-02-21T10:45:29;115150.97;;;-141.28;41.32
12358;BME280;6243;51.244;6.774;2024-02-21T10:47:56;115150.97;;;-141.28;40.85
12358;BME280;6243;51.244;6.774;2024-02-21T10:50:28;115150.97;;;-141.28;40.89
12358;BME280;6243;51.244;6.774;2024-02-21T10:53:06;115150.97;;;-141.28;40.56
12358;BME280;6243;51.244;6.774;2024-02-21T10:55:37;115150.97;;;-141.28;40.65
12358;BME280;6243;51.244;6.774;2024-02-21T10:58:03;115150.97;;;-141.28;40.76
12358;BME280;6243;51.244;6.774;2024-02-21T11:00:29;115150.97;;;-141.28;40.65
12358;BME280;6243;51.244;6.774;2024-02-21T11:02:56;115150.97;;;-141.28;40.69
12358;BME280;6243;51.244;6.774;2024-02-21T11:05:23;115150.97;;;-141.28;40.65
12358;BME280;6243;51.244;6.774;2024-02-21T11:07:48;115150.97;;;-141.28;41.24
12358;BME280;6243;51.244;6.774;2024-02-21T11:10:23;115150.97;;;-141.28;41.19
12358;BME280;6243;51.244;6.774;2024-02-21T11:12:49;115150.97;;;-141.28;40.96
12358;BME280;6243;51.244;6.774;2024-02-21T11:15:14;115150.97;;;-141.28;41.43
12358;BME280;6243;51.244;6.774;2024-02-21T11:17:40;115150.97;;;-141.28;41.34
12358;BME280;6243;51.244;6.774;2024-02-21T11:20:12;115150.97;;;-141.28;41.02
12358;BME280;6243;51.244;6.774;2024-02-21T11:22:41;115150.97;;;-141.28;40.72
12358;BME280;6243;51.244;6.774;2024-02-21T11:25:07;115150.97;;;-141.28;40.82
12358;BME280;6243;51.244;6.774;2024-02-21T11:27:34;115150.97;;;-141.28;40.89
12358;BME280;6243;51.244;6.774;2024-02-21T11:29:59;115150.97;;;-141.28;40.90
12358;BME280;6243;51.244;6.774;2024-02-21T11:32:26;115150.97;;;-141.28;40.64
12358;BME280;6243;51.244;6.774;2024-02-21T11:34:55;115150.97;;;-141.28;40.47
12358;BME280;6243;51.244;6.774;2024-02-21T11:37:21;115150.97;;;-141.28;40.76
12358;BME280;6243;51.244;6.774;2024-02-21T11:39:49;115150.97;;;-141.28;40.84
12358;BME280;6243;51.244;6.774;2024-02-21T11:42:15;115150.97;;;-141.28;40.33
12358;BME280;6243;51.244;6.774;2024-02-21T11:44:42;115150.97;;;-141.28;40.71
12358;BME280;6243;51.244;6.774;2024-02-21T11:47:08;115150.97;;;-141.28;40.67
12358;BME280;6243;51.244;6.774;2024-02-21T11:49:36;115150.97;;;-141.28;40.43
12358;BME280;6243;51.244;6.774;2024-02-21T11:52:03;115150.97;;;-141.28;40.17
12358;BME280;6243;51.244;6.774;2024-02-21T11:54:29;115150.97;;;-141.28;40.72
12358;BME280;6243;51.244;6.774;2024-02-21T11:56:54;115150.97;;;-141.28;41.07
12358;BME280;6243;51.244;6.774;2024-02-21T11:59:20;115150.97;;;-141.28;40.51
12358;BME280;6243;51.244;6.774;2024-02-21T12:01:47;115150.97;;;-141.28;41.37
12358;BME280;6243;51.244;6.774;2024-02-21T12:04:13;115150.97;;;-141.28;40.79
12358;BME280;6243;51.244;6.774;2024-02-21T12:06:38;115150.97;;;-141.28;40.46
12358;BME280;6243;51.244;6.774;2024-02-21T12:09:04;115150.97;;;-141.28;40.46
12358;BME280;6243;51.244;6.774;2024-02-21T12:11:30;115150.97;;;-141.28;40.13
12358;BME280;6243;51.244;6.774;2024-02-21T12:13:59;115150.97;;;-141.28;39.90
12358;BME280;6243;51.244;6.774;2024-02-21T12:16:25;115150.97;;;-141.28;39.27
12358;BME280;6243;51.244;6.774;2024-02-21T12:18:53;115150.97;;;-141.28;39.62
12358;BME280;6243;51.244;6.774;2024-02-21T12:21:19;115150.97;;;-141.28;39.63
12358;BME280;6243;51.244;6.774;2024-02-21T12:23:44;115150.97;;;-141.28;39.47
12358;BME280;6243;51.244;6.774;2024-02-21T12:26:10;115150.97;;;-141.28;39.31
12358;BME280;6243;51.244;6.774;2024-02-21T12:28:35;115150.97;;;-141.28;39.98
12358;BME280;6243;51.244;6.774;2024-02-21T12:31:01;115150.97;;;-141.28;39.74
12358;BME280;6243;51.244;6.774;2024-02-21T12:33:29;115150.97;;;-141.28;39.59
12358;BME280;6243;51.244;6.774;2024-02-21T12:35:56;115150.97;;;-141.28;39.43